Time;durP1;ratioP1;P1;durP2;ratioP2;P2;SDS_P1;SDS_P2;PMS_P1;PMS_P2;Temp;Humidity;BMP_temperature;BMP_pressure;BME280_temperature;BME280_humidity;BME280_pressure;Samples;Min_cycle;Max_cycle;Signal;HPM_P1;HPM_P2
2022/12/19 00:00:14;;;;;;;13.75;2.25;;;19.40;99.90;;;;;;5113323;28;20187;-77
2022/12/19 00:02:45;;;;;;;16.75;1.95;;;19.40;99.90;;;;;;5113250;28;20187;-80
2022/12/19 00:05:15;;;;;;;11.43;2.35;;;19.50;99.90;;;;;;5113798;28;20249;-78
2022/12/19 00:07:49;;;;;;;16.27;2.72;;;19.40;99.90;;;;;;5113132;28;20657;-77
2022/12/19 00:10:20;;;;;;;10.82;2.08;;;19.30;99.90;;;;;;5113469;28;20196;-78
2022/12/19 00:12:50;;;;;;;10.88;1.90;;;19.20;99.90;;;;;;5113090;28;20198;-78
2022/12/19 00:15:23;;;;;;;8.40;1.80;;;19.10;99.90;;;;;;5113031;28;20207;-78
2022/12/19 00:17:54;;;;;;;13.98;2.10;;;19.10;99.90;;;;;;5113147;28;20184;-78
2022/12/19 00:20:25;;;;;;;10.52;2.22;;;19.10;99.90;;;;;;5113067;28;20179;-75
2022/12/19 00:22:55;;;;;;;9.40;1.80;;;19.00;99.90;;;;;;5112733;28;20275;-77
2022/12/19 00:25:26;;;;;;;12.38;2.25;;;19.00;99.90;;;;;;5113057;28;20191;-74
2022/12/19 00:27:57;;;;;;;9.60;1.88;;;19.10;99.90;;;;;;5113316;28;20275;-77
2022/12/19 00:30:29;;;;;;;11.77;1.80;;;19.20;99.90;;;;;;5112905;28;20298;-77
2022/12/19 00:33:00;;;;;;;9.60;1.95;;;19.20;99.90;;;;;;5111767;28;20187;-76
2022/12/19 00:35:31;;;;;;;14.57;2.00;;;19.00;99.90;;;;;;5112767;28;20221;-76
2022/12/19 00:38:02;;;;;;;13.55;2.20;;;19.00;99.90;;;;;;5112737;28;20280;-77
2022/12/19 00:40:33;;;;;;;12.70;2.10;;;19.10;99.90;;;;;;5113139;28;20245;-78
2022/12/19 00:43:04;;;;;;;17.08;2.15;;;19.00;99.90;;;;;;5112399;28;20219;-76
2022/12/19 00:45:39;;;;;;;15.00;2.30;;;19.00;99.90;;;;;;5112591;28;20214;-76
2022/12/19 00:48:11;;;;;;;15.05;2.15;;;19.00;99.90;;;;;;5110300;28;20206;-77
2022/12/19 00:50:42;;;;;;;14.88;2.40;;;18.90;99.90;;;;;;5111497;28;20198;-77
2022/12/19 00:53:12;;;;;;;18.13;2.30;;;18.90;99.90;;;;;;5113145;28;20207;-79
2022/12/19 00:55:43;;;;;;;21.35;3.47;;;18.70;99.90;;;;;;5112848;28;20215;-75
2022/12/19 00:58:14;;;;;;;14.95;2.47;;;18.60;99.90;;;;;;5113011;28;20194;-78
2022/12/19 01:00:47;;;;;;;18.63;2.60;;;18.70;99.90;;;;;;5113028;28;20222;-81
2022/12/19 01:03:17;;;;;;;11.52;1.85;;;18.80;99.90;;;;;;5116477;28;20653;-79
2022/12/19 01:05:48;;;;;;;17.58;2.65;;;18.90;99.90;;;;;;5116384;28;20283;-77
2022/12/19 01:08:19;;;;;;;15.77;2.33;;;18.90;99.90;;;;;;5116241;28;20288;-78
2022/12/19 01:10:51;;;;;;;14.35;2.55;;;19.00;99.90;;;;;;5116205;28;20194;-77
2022/12/19 01:13:21;;;;;;;13.52;2.50;;;19.00;99.90;;;;;;5116669;27;20223;-73
2022/12/19 01:15:54;;;;;;;11.88;2.17;;;18.90;99.90;;;;;;5116027;28;20760;-77
2022/12/19 01:18:25;;;;;;;15.27;2.33;;;18.80;99.90;;;;;;5115948;28;20196;-77
2022/12/19 01:20:56;;;;;;;15.85;2.55;;;18.80;99.90;;;;;;5114262;28;20199;-76
2022/12/19 01:23:27;;;;;;;15.40;2.30;;;18.90;99.90;;;;;;5116177;28;20192;-78
2022/12/19 01:25:58;;;;;;;14.90;2.55;;;18.90;99.90;;;;;;5116190;28;20270;-77
2022/12/19 01:28:29;;;;;;;17.92;2.15;;;18.90;99.90;;;;;;5115757;28;20283;-78
2022/12/19 01:31:02;;;;;;;16.42;2.33;;;19.00;99.90;;;;;;5095798;28;20192;-77
2022/12/19 01:33:33;;;;;;;17.15;2.35;;;19.20;99.90;;;;;;5112424;28;20191;-77
2022/12/19 01:36:08;;;;;;;12.98;2.20;;;19.40;99.90;;;;;;5115861;28;20274;-77
2022/12/19 01:38:39;;;;;;;14.98;2.13;;;19.50;99.90;;;;;;5115844;28;20203;-78
2022/12/19 01:41:09;;;;;;;12.07;2.20;;;19.50;99.90;;;;;;5112220;28;20184;-78
2022/12/19 01:43:58;;;;;;;10.23;1.92;;;19.60;99.90;;;;;;5113055;28;20219;-76
2022/12/19 01:46:35;;;;;;;14.38;2.33;;;19.80;99.90;;;;;;5093347;28;20291;-76
2022/12/19 01:49:07;;;;;;;11.00;2.30;;;20.00;99.90;;;;;;5107836;28;20199;-79
2022/12/19 01:51:41;;;;;;;11.82;2.33;;;20.20;99.90;;;;;;5111839;27;21213;-78
2022/12/19 01:54:16;;;;;;;9.73;1.55;;;20.20;99.90;;;;;;5122124;27;20218;-78
2022/12/19 01:56:51;;;;;;;11.40;1.83;;;20.40;99.90;;;;;;5111510;28;20268;-77
2022/12/19 01:59:26;;;;;;;12.98;2.10;;;20.40;99.90;;;;;;5115796;27;20195;-78
2022/12/19 02:02:04;;;;;;;10.40;1.90;;;20.40;99.90;;;;;;5104721;27;20649;-77
2022/12/19 02:04:35;;;;;;;14.90;1.90;;;20.20;99.90;;;;;;5122073;27;20202;-74
2022/12/19 02:07:08;;;;;;;12.02;1.90;;;20.00;99.90;;;;;;5136049;27;20685;-76
2022/12/19 02:09:39;;;;;;;9.98;2.08;;;19.80;99.90;;;;;;5125019;27;20196;-83
2022/12/19 02:12:10;;;;;;;15.15;1.98;;;19.70;99.90;;;;;;5120376;27;20198;-79
2022/12/19 02:14:41;;;;;;;14.50;2.13;;;19.50;99.90;;;;;;5111918;27;20309;-78
2022/12/19 02:17:23;;;;;;;12.93;1.95;;;19.40;99.90;;;;;;5116544;27;20274;-80
2022/12/19 02:20:30;;;;;;;15.20;2.28;;;19.30;99.90;;;;;;5131319;27;20281;-78
2022/12/19 02:23:16;;;;;;;12.48;1.90;;;19.30;99.90;;;;;;5123303;27;20199;-75
2022/12/19 02:26:03;;;;;;;11.68;2.03;;;19.30;99.90;;;;;;5113642;28;20196;-77
2022/12/19 02:28:56;;;;;;;9.50;1.70;;;19.40;99.90;;;;;;5114042;28;20252;-78
2022/12/19 02:31:33;;;;;;;11.27;2.08;;;19.90;99.90;;;;;;5109013;27;20200;-78
2022/12/19 02:34:11;;;;;;;15.70;2.70;;;20.20;99.90;;;;;;5101521;28;20196;-78
2022/12/19 02:36:46;;;;;;;12.32;2.10;;;20.20;99.90;;;;;;5124803;27;20237;-75
2022/12/19 02:39:24;;;;;;;15.38;2.45;;;20.20;99.90;;;;;;5109229;28;20191;-80
2022/12/19 02:41:59;;;;;;;11.90;1.95;;;20.30;99.90;;;;;;5113675;28;20187;-79
2022/12/19 02:44:33;;;;;;;10.38;1.85;;;20.10;99.90;;;;;;5118454;27;20206;-79
2022/12/19 02:47:07;;;;;;;11.30;1.83;;;19.90;99.90;;;;;;5111844;28;20286;-79
2022/12/19 02:49:40;;;;;;;10.38;1.55;;;19.90;99.90;;;;;;5112530;27;20286;-77
2022/12/19 02:52:14;;;;;;;8.40;1.58;;;20.20;99.90;;;;;;5115504;27;20196;-77
2022/12/19 02:54:46;;;;;;;9.23;1.80;;;20.30;99.90;;;;;;5115623;27;20206;-78
2022/12/19 02:57:21;;;;;;;12.13;2.03;;;20.60;99.90;;;;;;5110486;27;20192;-76
2022/12/19 03:00:01;;;;;;;9.05;2.03;;;20.60;99.90;;;;;;5115402;27;20248;-78
2022/12/19 03:02:40;;;;;;;11.90;2.15;;;20.50;99.90;;;;;;5122164;27;20194;-81
2022/12/19 03:05:16;;;;;;;13.73;1.85;;;20.30;99.90;;;;;;5111689;28;20210;-78
2022/12/19 03:07:57;;;;;;;11.50;1.90;;;20.60;99.90;;;;;;5112698;28;20194;-77
2022/12/19 03:10:34;;;;;;;12.45;2.00;;;20.50;99.90;;;;;;5108959;27;20244;-78
2022/12/19 03:13:10;;;;;;;11.90;2.00;;;20.50;99.90;;;;;;5110609;28;20195;-79
2022/12/19 03:15:42;;;;;;;15.95;2.10;;;20.30;99.90;;;;;;5109831;27;20222;-81
2022/12/19 03:18:15;;;;;;;13.40;2.30;;;20.20;99.90;;;;;;5114132;27;20243;-78
2022/12/19 03:20:51;;;;;;;11.25;1.83;;;20.40;99.90;;;;;;5120021;27;20213;-77
2022/12/19 03:23:22;;;;;;;11.35;1.80;;;20.50;99.90;;;;;;5107541;28;20665;-77
2022/12/19 03:25:57;;;;;;;12.07;2.10;;;20.30;99.90;;;;;;5121164;27;20742;-79
2022/12/19 03:28:33;;;;;;;13.57;2.22;;;20.30;99.90;;;;;;5113985;28;20191;-78
2022/12/19 03:31:05;;;;;;;12.43;2.20;;;20.20;99.90;;;;;;5124844;27;20281;-78
2022/12/19 03:33:39;;;;;;;15.93;2.40;;;20.20;99.90;;;;;;5102487;28;20227;-79
2022/12/19 03:36:15;;;;;;;13.25;2.13;;;20.10;99.90;;;;;;5102425;28;20237;-78
2022/12/19 03:38:47;;;;;;;11.98;1.95;;;20.00;99.90;;;;;;5096750;28;20616;-81
2022/12/19 03:43:07;;;;;;;16.08;2.08;;;19.70;99.90;;;;;;5113133;27;20200;-83
2022/12/19 03:44:11;;;;;;;9.60;1.88;;;19.60;99.90;;;;;;5112435;28;20196;-79
2022/12/19 03:46:47;;;;;;;15.07;2.15;;;19.50;99.90;;;;;;5119060;28;20360;-78
2022/12/19 03:49:19;;;;;;;10.27;1.67;;;19.60;99.90;;;;;;5106107;28;20223;-81
2022/12/19 03:51:55;;;;;;;12.38;2.00;;;19.60;99.90;;;;;;5112057;28;20195;-77
2022/12/19 03:54:29;;;;;;;12.02;2.17;;;19.50;99.90;;;;;;5123839;27;20195;-78
2022/12/19 03:57:07;;;;;;;12.05;2.35;;;19.50;99.90;;;;;;5117798;28;20210;-78
2022/12/19 03:59:43;;;;;;;10.55;2.20;;;19.40;99.90;;;;;;5109730;28;20199;-77
2022/12/19 04:02:16;;;;;;;15.30;2.17;;;19.30;99.90;;;;;;5113097;28;20186;-78
2022/12/19 04:04:53;;;;;;;14.40;2.30;;;19.40;99.90;;;;;;5119954;27;20209;-77
2022/12/19 04:07:25;;;;;;;13.88;2.17;;;19.60;99.90;;;;;;5112605;28;20195;-79
2022/12/19 04:10:00;;;;;;;12.40;2.17;;;19.50;99.90;;;;;;5112520;28;20286;-75
2022/12/19 04:12:35;;;;;;;15.10;2.63;;;19.50;99.90;;;;;;5113734;28;20669;-78
2022/12/19 04:15:07;;;;;;;14.45;2.28;;;19.40;99.90;;;;;;5112130;28;20743;-76
2022/12/19 04:17:42;;;;;;;10.57;1.90;;;19.60;99.90;;;;;;5121142;28;20188;-76
2022/12/19 04:20:16;;;;;;;13.18;2.40;;;19.70;99.90;;;;;;5121684;28;20239;-76
2022/12/19 04:22:52;;;;;;;11.85;2.38;;;19.80;99.90;;;;;;5109429;28;20243;-76
2022/12/19 04:25:28;;;;;;;9.02;2.40;;;19.70;99.90;;;;;;5115816;28;20191;-75
2022/12/19 04:28:03;;;;;;;10.13;2.08;;;19.70;99.90;;;;;;5112290;28;20211;-77
2022/12/19 04:30:36;;;;;;;14.48;2.00;;;19.90;99.90;;;;;;5111248;28;20199;-78
2022/12/19 04:33:07;;;;;;;11.77;2.10;;;19.80;99.90;;;;;;5112081;28;20687;-77
2022/12/19 04:35:41;;;;;;;11.52;1.85;;;19.90;99.90;;;;;;5115490;28;20219;-77
2022/12/19 04:38:12;;;;;;;11.35;1.98;;;20.00;99.90;;;;;;5123384;27;20198;-75
2022/12/19 04:40:42;;;;;;;7.93;1.92;;;20.00;99.90;;;;;;5122719;27;20195;-75
2022/12/19 04:43:13;;;;;;;10.07;1.75;;;19.60;99.90;;;;;;5116357;28;20211;-77
2022/12/19 04:45:44;;;;;;;8.10;1.80;;;19.70;99.90;;;;;;5124724;27;20203;-76
2022/12/19 04:48:15;;;;;;;8.73;1.67;;;19.80;99.90;;;;;;5123104;27;20224;-75
2022/12/19 04:50:48;;;;;;;13.73;1.85;;;20.00;99.90;;;;;;5123433;27;20205;-77
2022/12/19 04:53:19;;;;;;;7.22;1.63;;;20.00;99.90;;;;;;5116232;27;20244;-79
2022/12/19 04:55:49;;;;;;;12.23;2.03;;;20.00;99.90;;;;;;5123030;27;20305;-79
2022/12/19 04:58:20;;;;;;;11.30;1.95;;;19.90;99.90;;;;;;5123844;27;20367;-78
2022/12/19 05:00:51;;;;;;;10.38;1.70;;;19.90;99.90;;;;;;5128443;27;20198;-77
2022/12/19 05:03:22;;;;;;;9.27;1.60;;;19.90;99.90;;;;;;5119933;27;20188;-78
2022/12/19 05:05:55;;;;;;;10.48;1.83;;;19.70;99.90;;;;;;5114748;27;20654;-78
2022/12/19 05:08:26;;;;;;;10.73;1.67;;;19.70;99.90;;;;;;5109680;27;20191;-78
2022/12/19 05:11:00;;;;;;;8.38;1.80;;;19.50;99.90;;;;;;5126275;27;20199;-77
2022/12/19 05:13:32;;;;;;;11.38;1.73;;;19.40;99.90;;;;;;5116312;28;20188;-77
2022/12/19 05:16:03;;;;;;;14.35;2.20;;;19.40;99.90;;;;;;5115503;27;20250;-77
2022/12/19 05:18:34;;;;;;;10.63;1.80;;;19.60;99.90;;;;;;5125423;27;20191;-76
2022/12/19 05:21:07;;;;;;;11.98;1.98;;;19.80;99.90;;;;;;5127407;27;20198;-76
2022/12/19 05:23:38;;;;;;;13.95;2.10;;;19.90;99.90;;;;;;5121098;27;20551;-76
2022/12/19 05:26:09;;;;;;;11.52;2.40;;;19.90;99.90;;;;;;5133790;27;20278;-76
2022/12/19 05:28:40;;;;;;;13.93;2.13;;;19.60;99.90;;;;;;5104641;27;20555;-76
2022/12/19 05:31:13;;;;;;;15.60;1.90;;;19.50;99.90;;;;;;5123451;27;20660;-76
2022/12/19 05:33:44;;;;;;;13.98;2.25;;;19.30;99.90;;;;;;5120600;27;20192;-78
2022/12/19 05:36:18;;;;;;;9.57;1.67;;;19.10;99.90;;;;;;5105966;27;20279;-79
2022/12/19 05:38:48;;;;;;;13.50;2.20;;;19.00;99.90;;;;;;5109303;27;20191;-77
2022/12/19 05:41:21;;;;;;;15.70;2.47;;;19.00;99.90;;;;;;5123598;27;20196;-77
2022/12/19 05:43:54;;;;;;;14.20;2.22;;;19.00;99.90;;;;;;5117521;27;20215;-79
2022/12/19 05:46:26;;;;;;;11.68;2.05;;;19.20;99.90;;;;;;5113745;28;20202;-77
2022/12/19 05:48:58;;;;;;;15.38;2.10;;;19.20;99.90;;;;;;5115160;28;20230;-77
2022/12/19 05:51:30;;;;;;;15.00;2.50;;;19.10;99.90;;;;;;5115497;28;20195;-77
2022/12/19 05:54:03;;;;;;;45.95;23.17;;;19.10;99.90;;;;;;5115708;28;20195;-80
2022/12/19 05:56:33;;;;;;;21.40;7.85;;;19.10;99.90;;;;;;5113393;27;20306;-75
2022/12/19 05:59:04;;;;;;;19.48;5.25;;;19.10;99.90;;;;;;5115473;28;20198;-75
2022/12/19 06:01:35;;;;;;;14.43;3.80;;;19.00;99.90;;;;;;5126549;27;20943;-77
2022/12/19 06:04:06;;;;;;;16.38;3.50;;;18.90;99.90;;;;;;5114595;27;20428;-76
2022/12/19 06:06:39;;;;;;;13.00;2.17;;;18.90;99.90;;;;;;5122180;27;20194;-79
2022/12/19 06:09:10;;;;;;;17.00;2.30;;;18.90;99.90;;;;;;5111155;28;20623;-77
2022/12/19 06:11:40;;;;;;;17.48;2.38;;;18.90;99.90;;;;;;5122613;27;20230;-74
2022/12/19 06:14:11;;;;;;;14.13;2.30;;;18.90;99.90;;;;;;5117399;27;20201;-74
2022/12/19 06:16:42;;;;;;;14.68;2.83;;;18.90;99.90;;;;;;5112367;27;20242;-75
2022/12/19 06:19:13;;;;;;;15.93;2.03;;;18.90;99.90;;;;;;5115468;27;20734;-77
2022/12/19 06:21:46;;;;;;;18.48;2.28;;;18.70;99.90;;;;;;5112477;27;20196;-80
2022/12/19 06:24:18;;;;;;;14.98;2.38;;;18.60;99.90;;;;;;5103467;28;20284;-77
2022/12/19 06:26:49;;;;;;;12.90;2.60;;;18.60;99.90;;;;;;5111074;28;20188;-78
2022/12/19 06:29:20;;;;;;;14.98;1.90;;;18.50;99.90;;;;;;5111683;28;20222;-76
2022/12/19 06:31:51;;;;;;;15.95;2.33;;;18.30;99.90;;;;;;5113791;28;20979;-76
2022/12/19 06:34:21;;;;;;;14.80;2.38;;;18.20;99.90;;;;;;5112562;28;20244;-77
2022/12/19 06:36:54;;;;;;;13.95;2.08;;;18.20;99.90;;;;;;5114460;28;20325;-74
2022/12/19 06:39:25;;;;;;;15.63;2.13;;;18.20;99.90;;;;;;5112056;28;20191;-76
2022/12/19 06:44:43;;;;;;;16.67;2.38;;;18.30;99.90;;;;;;5113444;28;20202;-79
2022/12/19 06:47:14;;;;;;;14.30;2.53;;;18.30;99.90;;;;;;5109533;28;20274;-74
2022/12/19 06:49:45;;;;;;;16.17;2.97;;;18.40;99.90;;;;;;5113027;27;20298;-76
2022/12/19 06:52:17;;;;;;;12.68;1.90;;;18.40;99.90;;;;;;5113395;27;20403;-77
2022/12/19 06:54:48;;;;;;;13.18;2.20;;;18.40;99.90;;;;;;5128485;27;20199;-75
2022/12/19 06:57:19;;;;;;;15.23;2.10;;;18.50;99.90;;;;;;5121085;27;20225;-77
2022/12/19 06:59:50;;;;;;;13.95;1.98;;;18.40;99.90;;;;;;5130250;27;20198;-77
2022/12/19 07:02:28;;;;;;;13.77;1.92;;;18.40;99.90;;;;;;5125800;27;20195;-76
2022/12/19 07:05:03;;;;;;;10.52;2.00;;;18.30;99.90;;;;;;5129064;27;20198;-76
2022/12/19 07:07:37;;;;;;;9.25;1.70;;;18.20;99.90;;;;;;5134170;27;20285;-77
2022/12/19 07:10:09;;;;;;;11.35;2.17;;;18.20;99.90;;;;;;5109764;28;20202;-80
2022/12/19 07:12:40;;;;;;;10.70;1.70;;;18.10;99.90;;;;;;5117164;27;20280;-77
2022/12/19 07:15:11;;;;;;;12.55;2.00;;;18.10;99.90;;;;;;5113969;27;20195;-80
2022/12/19 07:17:42;;;;;;;11.57;1.90;;;18.10;99.90;;;;;;5119920;27;20214;-79
2022/12/19 07:20:14;;;;;;;15.32;2.35;;;18.10;99.90;;;;;;5134202;27;20205;-78
2022/12/19 07:22:47;;;;;;;13.73;2.17;;;18.10;99.90;;;;;;5131149;27;20864;-78
2022/12/19 07:25:18;;;;;;;10.95;1.65;;;18.10;99.90;;;;;;5123236;27;20190;-79
2022/12/19 07:27:49;;;;;;;12.57;1.80;;;18.30;99.90;;;;;;5111563;27;20195;-76
2022/12/19 07:30:21;;;;;;;14.15;2.30;;;18.40;99.90;;;;;;5112719;28;20555;-78
2022/12/19 07:32:52;;;;;;;10.55;2.08;;;18.40;99.90;;;;;;5120606;27;20199;-77
2022/12/19 07:35:26;;;;;;;14.15;1.92;;;18.50;99.90;;;;;;5130130;27;20187;-79
2022/12/19 07:38:04;;;;;;;13.50;1.75;;;18.50;99.90;;;;;;5116886;27;20240;-78
2022/12/19 07:40:35;;;;;;;14.32;2.45;;;18.60;99.90;;;;;;5113046;27;20230;-77
2022/12/19 07:43:07;;;;;;;13.30;2.58;;;18.60;99.90;;;;;;5113560;28;20194;-77
2022/12/19 07:45:40;;;;;;;11.32;2.20;;;18.70;99.90;;;;;;5109049;28;20670;-77
2022/12/19 07:48:11;;;;;;;11.38;2.13;;;18.60;99.90;;;;;;5113312;28;20274;-77
2022/12/19 07:50:44;;;;;;;11.82;2.10;;;18.50;99.90;;;;;;5108411;28;20195;-78
2022/12/19 07:53:17;;;;;;;16.08;2.45;;;18.40;99.90;;;;;;5128059;28;20195;-79
2022/12/19 07:55:51;;;;;;;18.95;2.20;;;18.30;99.90;;;;;;5110583;27;20279;-75
2022/12/19 07:58:22;;;;;;;16.67;1.98;;;18.20;99.90;;;;;;5106821;28;20198;-79
2022/12/19 08:00:57;;;;;;;11.40;1.75;;;18.30;99.90;;;;;;5102095;28;20203;-77
2022/12/19 08:03:33;;;;;;;13.88;1.90;;;18.40;99.90;;;;;;5111861;28;20231;-78
2022/12/19 08:06:05;;;;;;;14.63;1.92;;;18.40;99.90;;;;;;5116987;28;20239;-78
2022/12/19 08:08:38;;;;;;;11.10;1.90;;;18.40;99.90;;;;;;5109345;28;20650;-76
2022/12/19 08:11:15;;;;;;;8.90;1.77;;;18.20;99.90;;;;;;5115091;28;20192;-76
2022/12/19 08:13:46;;;;;;;8.35;1.70;;;18.20;99.90;;;;;;5112818;27;20599;-79
2022/12/19 08:16:17;;;;;;;11.02;1.67;;;18.10;99.90;;;;;;5114540;28;20214;-76
2022/12/19 08:18:48;;;;;;;8.73;1.65;;;18.00;99.90;;;;;;5108970;28;20192;-78
2022/12/19 08:21:19;;;;;;;7.78;1.65;;;18.00;99.90;;;;;;5119320;27;20190;-77
2022/12/19 08:23:52;;;;;;;12.98;1.60;;;17.90;99.90;;;;;;5117606;27;20196;-78
2022/12/19 08:26:25;;;;;;;9.35;1.60;;;18.00;99.90;;;;;;5111700;28;20204;-78
2022/12/19 08:28:57;;;;;;;9.13;1.80;;;17.90;99.90;;;;;;5125811;27;20276;-78
2022/12/19 08:31:31;;;;;;;6.90;1.50;;;17.90;99.90;;;;;;5119446;27;20654;-76
2022/12/19 08:34:02;;;;;;;8.35;1.67;;;17.80;99.90;;;;;;5120643;27;20235;-76
2022/12/19 08:36:33;;;;;;;9.15;1.55;;;17.80;99.90;;;;;;5109849;27;20227;-77
2022/12/19 08:39:06;;;;;;;9.30;1.40;;;17.80;99.90;;;;;;5121405;27;20278;-76
2022/12/19 08:41:37;;;;;;;11.05;1.88;;;17.80;99.90;;;;;;5113228;28;20200;-77
2022/12/19 08:44:08;;;;;;;10.50;1.48;;;17.70;99.90;;;;;;5107520;28;20192;-75
2022/12/19 08:46:39;;;;;;;14.60;1.90;;;17.70;99.90;;;;;;5115463;28;20206;-75
2022/12/19 08:49:10;;;;;;;10.73;1.70;;;17.60;99.90;;;;;;5116373;27;20554;-77
2022/12/19 08:51:43;;;;;;;10.30;1.60;;;17.50;99.90;;;;;;5129235;27;20278;-76
2022/12/19 08:54:16;;;;;;;10.93;1.77;;;17.50;99.90;;;;;;5125358;27;20728;-75
2022/12/19 08:56:47;;;;;;;10.52;1.77;;;17.40;99.90;;;;;;5114588;28;20318;-76
2022/12/19 08:59:18;;;;;;;8.57;1.70;;;17.30;99.90;;;;;;5124909;27;20202;-76
2022/12/19 09:01:48;;;;;;;10.30;1.92;;;17.30;99.90;;;;;;5124366;27;20747;-76
2022/12/19 09:04:19;;;;;;;10.75;1.52;;;17.30;99.90;;;;;;5119368;27;20207;-75
2022/12/19 09:06:50;;;;;;;11.88;2.60;;;17.20;99.90;;;;;;5126539;27;20198;-75
2022/12/19 09:09:23;;;;;;;11.88;1.90;;;17.20;99.90;;;;;;5115136;27;20198;-76
2022/12/19 09:11:53;;;;;;;14.85;2.03;;;17.20;99.90;;;;;;5135021;27;20189;-77
2022/12/19 09:14:24;;;;;;;15.40;2.08;;;17.20;99.90;;;;;;5106788;27;20203;-79
2022/12/19 09:16:55;;;;;;;13.45;2.20;;;17.10;99.90;;;;;;5114153;28;20212;-75
2022/12/19 09:19:26;;;;;;;12.43;2.05;;;17.10;99.90;;;;;;5125382;27;20202;-75
2022/12/19 09:21:57;;;;;;;37.67;19.88;;;17.10;99.90;;;;;;5132333;27;20201;-75
2022/12/19 09:24:29;;;;;;;58.05;37.33;;;17.00;99.90;;;;;;5110082;28;20198;-78
2022/12/19 09:27:00;;;;;;;16.85;4.60;;;17.00;99.90;;;;;;5122448;27;20198;-78
2022/12/19 09:29:31;;;;;;;14.48;1.90;;;17.00;99.90;;;;;;5119491;27;20197;-79
2022/12/19 09:32:02;;;;;;;14.65;2.28;;;17.00;99.90;;;;;;5120972;27;20642;-75
2022/12/19 09:34:32;;;;;;;9.93;1.75;;;17.00;99.90;;;;;;5112583;27;20199;-75
2022/12/19 09:37:03;;;;;;;9.27;1.77;;;16.90;99.90;;;;;;5113347;27;20281;-75
2022/12/19 09:39:36;;;;;;;12.07;1.92;;;16.90;99.90;;;;;;5115545;28;20609;-77
2022/12/19 09:42:30;;;;;;;9.93;1.90;;;16.90;99.90;;;;;;5111246;27;20195;-77
2022/12/19 09:45:25;;;;;;;11.88;1.88;;;16.90;99.90;;;;;;5122443;27;20209;-77
2022/12/19 09:47:59;;;;;;;12.38;1.73;;;16.80;99.90;;;;;;5111942;27;20670;-79
2022/12/19 09:50:51;;;;;;;9.57;1.75;;;16.80;99.90;;;;;;5115549;28;20180;-78
2022/12/19 09:53:27;;;;;;;7.60;1.33;;;16.80;99.90;;;;;;5128289;27;20194;-77
2022/12/19 09:56:01;;;;;;;10.18;1.90;;;16.80;99.90;;;;;;5131914;27;20287;-76
2022/12/19 09:58:39;;;;;;;9.63;1.52;;;16.80;99.90;;;;;;5127778;27;20219;-77
2022/12/19 10:01:18;;;;;;;8.93;1.60;;;16.80;99.90;;;;;;5114356;28;20188;-79
2022/12/19 10:03:56;;;;;;;8.75;1.90;;;16.80;99.90;;;;;;5113471;27;20191;-77
2022/12/19 10:06:27;;;;;;;12.73;1.83;;;16.70;99.90;;;;;;5113137;27;20191;-76
2022/12/19 10:08:59;;;;;;;9.13;1.98;;;16.70;99.90;;;;;;5115148;27;20199;-76
2022/12/19 10:11:48;;;;;;;7.15;1.90;;;16.70;99.90;;;;;;5123869;27;20548;-77
2022/12/19 10:14:32;;;;;;;11.07;2.20;;;16.70;99.90;;;;;;5111202;27;20200;-77
2022/12/19 10:17:09;;;;;;;8.02;1.83;;;16.70;99.90;;;;;;5112261;27;20777;-79
2022/12/19 10:19:51;;;;;;;10.20;2.10;;;16.60;99.90;;;;;;5122202;27;20201;-77
2022/12/19 10:22:34;;;;;;;10.55;2.10;;;16.70;99.90;;;;;;5117525;27;20196;-78
2022/12/19 10:25:19;;;;;;;10.55;1.88;;;16.70;99.90;;;;;;5120691;27;20209;-77
2022/12/19 10:27:56;;;;;;;10.13;1.98;;;16.70;99.90;;;;;;5107455;28;20530;-79
2022/12/19 10:30:28;;;;;;;5.03;1.52;;;16.70;99.90;;;;;;5117046;27;20194;-78
2022/12/19 10:33:11;;;;;;;10.27;1.58;;;16.60;99.90;;;;;;5116220;27;20198;-80
2022/12/19 10:35:45;;;;;;;10.40;1.95;;;16.70;99.90;;;;;;5116816;27;20540;-77
2022/12/19 10:38:25;;;;;;;14.00;1.80;;;16.70;99.90;;;;;;5125807;27;20555;-77
2022/12/19 10:41:08;;;;;;;11.38;1.80;;;16.70;99.90;;;;;;5113339;27;20281;-77
2022/12/19 10:43:50;;;;;;;6.38;1.30;;;16.70;99.90;;;;;;5130758;27;20197;-76
2022/12/19 10:46:30;;;;;;;12.25;1.73;;;16.70;99.90;;;;;;5114745;27;20196;-80
2022/12/19 10:49:01;;;;;;;10.63;2.05;;;16.70;99.90;;;;;;5098891;28;20215;-79
2022/12/19 10:51:34;;;;;;;12.20;2.10;;;16.70;99.90;;;;;;5102511;28;20184;-77
2022/12/19 10:54:05;;;;;;;11.32;1.88;;;16.70;99.90;;;;;;5109505;28;20219;-79
2022/12/19 10:56:37;;;;;;;11.13;1.88;;;16.70;99.90;;;;;;5106723;27;20201;-77
2022/12/19 10:59:18;;;;;;;8.25;1.60;;;16.60;99.90;;;;;;5110558;27;20613;-77
2022/12/19 11:01:49;;;;;;;7.55;1.50;;;16.60;99.90;;;;;;5112162;27;20624;-77
2022/12/19 11:04:31;;;;;;;10.40;1.67;;;16.60;99.90;;;;;;5111837;28;20651;-79
2022/12/19 11:07:19;;;;;;;7.35;1.45;;;16.60;99.90;;;;;;5109243;28;20195;-79
2022/12/19 11:09:50;;;;;;;9.85;1.83;;;16.50;99.90;;;;;;5111665;28;20192;-79
2022/12/19 11:12:21;;;;;;;9.32;1.63;;;16.50;99.90;;;;;;5114175;28;20195;-78
2022/12/19 11:15:08;;;;;;;9.82;1.60;;;16.50;99.90;;;;;;5112413;28;20230;-78
2022/12/19 11:17:40;;;;;;;10.90;1.70;;;16.50;99.90;;;;;;5111762;28;20231;-78
2022/12/19 11:20:19;;;;;;;10.13;1.35;;;16.50;99.90;;;;;;5113176;28;20283;-78
2022/12/19 11:22:55;;;;;;;9.20;2.08;;;16.50;99.90;;;;;;5107525;28;20195;-79
2022/12/19 11:25:32;;;;;;;7.32;1.40;;;16.50;99.90;;;;;;5107418;28;20191;-79
2022/12/19 11:28:08;;;;;;;7.95;1.38;;;16.50;99.90;;;;;;5108644;28;20737;-80
2022/12/19 11:30:42;;;;;;;9.10;2.03;;;16.50;99.90;;;;;;5113721;28;20631;-80
2022/12/19 11:33:16;;;;;;;6.47;1.35;;;16.50;99.90;;;;;;5109652;28;20192;-80
2022/12/19 11:35:53;;;;;;;10.15;1.60;;;16.50;99.90;;;;;;5112748;28;20285;-78
2022/12/19 11:38:36;;;;;;;11.32;1.92;;;16.50;99.90;;;;;;5113661;28;20219;-81
2022/12/19 11:41:16;;;;;;;7.60;1.60;;;16.50;99.90;;;;;;5108181;28;20199;-79
2022/12/19 11:43:57;;;;;;;6.82;1.52;;;16.50;99.90;;;;;;5103582;28;20665;-80
2022/12/19 11:46:44;;;;;;;10.00;1.55;;;16.50;99.90;;;;;;5099746;28;20200;-80
2022/12/19 11:49:23;;;;;;;10.68;1.50;;;16.50;99.90;;;;;;5113623;28;20198;-80
2022/12/19 11:51:59;;;;;;;11.63;1.38;;;16.50;99.90;;;;;;5109951;28;20202;-78
2022/12/19 11:54:34;;;;;;;5.82;1.30;;;16.50;99.90;;;;;;5111767;28;20712;-79
2022/12/19 11:57:05;;;;;;;6.40;1.40;;;16.50;99.90;;;;;;5108062;28;20184;-80
2022/12/19 11:59:38;;;;;;;5.80;1.60;;;16.50;99.90;;;;;;5105875;28;20650;-80
2022/12/19 12:02:35;;;;;;;9.02;1.42;;;16.50;99.90;;;;;;5113599;28;20195;-79
2022/12/19 12:05:34;;;;;;;8.40;1.35;;;16.40;99.90;;;;;;5109454;28;20650;-79
2022/12/19 12:08:32;;;;;;;6.78;1.40;;;16.40;99.90;;;;;;5112781;28;20183;-80
2022/12/19 12:11:05;;;;;;;9.57;1.67;;;16.30;99.90;;;;;;5100754;28;20206;-80
2022/12/19 12:13:46;;;;;;;9.07;1.80;;;16.30;99.90;;;;;;5111822;28;20578;-80
2022/12/19 12:16:19;;;;;;;5.93;1.25;;;16.30;99.90;;;;;;5112575;28;20190;-79
2022/12/19 12:19:12;;;;;;;7.40;1.63;;;16.30;99.90;;;;;;5113283;28;20215;-80
2022/12/19 12:21:51;;;;;;;6.38;1.30;;;16.20;99.90;;;;;;5112852;28;20188;-80
2022/12/19 12:24:34;;;;;;;10.57;1.70;;;16.20;99.90;;;;;;5111120;28;20220;-80
2022/12/19 12:27:27;;;;;;;9.70;1.70;;;16.20;99.90;;;;;;5112683;28;20295;-80
2022/12/19 12:30:04;;;;;;;7.13;1.63;;;16.20;99.90;;;;;;5096175;28;20188;-80
2022/12/19 12:32:52;;;;;;;8.20;1.30;;;16.10;99.90;;;;;;5104961;28;20700;-80
2022/12/19 12:35:36;;;;;;;7.18;1.50;;;16.10;99.90;;;;;;5112203;28;20191;-80
2022/12/19 12:38:23;;;;;;;9.15;1.45;;;16.10;99.90;;;;;;5110867;28;20292;-80
2022/12/19 12:41:11;;;;;;;8.95;1.20;;;16.10;99.90;;;;;;5115049;28;20586;-79
2022/12/19 12:43:58;;;;;;;7.65;1.50;;;16.10;99.90;;;;;;5112504;28;20198;-78
2022/12/19 12:46:44;;;;;;;8.18;1.45;;;16.10;99.90;;;;;;5108763;28;20279;-81
2022/12/19 12:49:34;;;;;;;6.63;1.73;;;16.10;99.90;;;;;;5092972;28;20192;-80
2022/12/19 12:52:10;;;;;;;8.68;1.58;;;16.10;99.90;;;;;;5109622;28;20191;-80
2022/12/19 12:54:43;;;;;;;11.05;1.88;;;16.10;99.90;;;;;;5113039;28;20187;-80
2022/12/19 12:57:22;;;;;;;10.02;1.45;;;16.10;99.90;;;;;;5113921;28;20586;-80
2022/12/19 13:00:17;;;;;;;12.00;1.75;;;16.10;99.90;;;;;;5116242;28;20203;-80
2022/12/19 13:02:51;;;;;;;10.30;1.88;;;16.10;99.90;;;;;;5116503;28;20214;-80
2022/12/19 13:05:42;;;;;;;11.23;1.70;;;16.10;99.90;;;;;;5116479;28;20195;-80
2022/12/19 13:08:37;;;;;;;11.95;1.90;;;16.00;99.90;;;;;;5116712;28;20198;-80
2022/12/19 13:12:58;;;;;;;6.68;1.42;;;16.00;99.90;;;;;;5116535;28;20191;-80
2022/12/19 13:14:05;;;;;;;11.13;1.70;;;15.90;99.90;;;;;;5115602;28;20589;-79
2022/12/19 13:16:59;;;;;;;8.48;1.40;;;16.00;99.90;;;;;;5116680;28;20266;-77
2022/12/19 13:19:31;;;;;;;10.95;2.15;;;16.00;99.90;;;;;;5097007;28;20223;-77